Aérodrome :
LOGIN :

S'inscrire | Disclaimer

   EN    FR    IT 

 










Légende :    VFR   VFR Marginal   IFR   IFR Intensif   IFR Très Intensif
Visi : 
Plafond : 
>= 8 km
>= 3000ft
5 à 8 km
1000 à 3000 ft
1500m à 5 km
500 à 1000 ft
800 à 1500m
200 à 500 ft
< 800m
< 200 ft
Symboles :   Orages  Brouillard  Fortes neiges  Fortes précipitations  Vent > 20 kt
SIGMETs :   Divers  Orages  Givrage  Turbulence  Onde Orograph.  Cendres Volcan.







- Altitude de l'aérodrome : 1260 ft
- Code IATA : LDE
- Voir les cartes d'approche


LFBT - Tarbes / Ossun

DERNIER METAR :
  • 212200Z AUTO 24002KT 9999 BKN012 BKN018 OVC026 17/15 Q1016 TEMPO BKN009 BKN014

METARs EXPIRÉS :
  • 212130Z AUTO 22003KT 9999 BKN010 OVC028 16/15 Q1016 NOSIG
  • 212100Z AUTO VRB02KT 9999 BKN008 OVC028 16/15 Q1015 NOSIG
  • 212030Z AUTO 28003KT 9999 BKN009 BKN013 OVC028 17/15 Q1015 BECMG SCT030
  • 212000Z AUTO VRB02KT 9999 FEW009 OVC014 17/15 Q1015 BECMG SCT030
  • 211930Z AUTO 29004KT 270V330 9999 OVC008 17/15 Q1015 BECMG SCT030

TAF AMD TAF LFBT
Valide du 21 à 20h jusqu'au 22 à 18h UTC


212032Z 2120/2218 30005KT 9999 OVC020
TEMPO 2120/2124 BKN009 BKN014
BECMG 2200/2202 CAVOK
BECMG 2210/2212 BKN040
Pas de NOTAMs connus pour ce terrain.



MET'MAP, la Météo Aéronautique d'un coup d'oeil ! - Copyright ORBIFLY Décembre 2007 - Disclaimer

ORBIFLY MET'MAP TEAM :

Programmation & Développement : Alexandra Zaïnal
Conception & Développement : Baudouin d'Aumeries
Co-Programmation & Développement : Marc-Olivier Méhu
Soutien technique & logistique : Manuel Goepfert

Contact : metmap@orbifly.com




SOURCES & CREDITS :

   NOAA